createdAt,value
2018-11-20T00:00:03.596Z,12.53
2018-11-20T00:02:51.118Z,12.13
2018-11-20T00:05:34.742Z,12.93
2018-11-20T00:08:30.222Z,11.77
2018-11-20T00:11:22.493Z,11.83
2018-11-20T00:14:11.103Z,12.07
2018-11-20T00:17:06.790Z,12.17
2018-11-20T00:19:55.659Z,12.60
2018-11-20T00:22:42.279Z,12.10
2018-11-20T00:25:25.827Z,11.83
2018-11-20T00:28:14.590Z,11.97
2018-11-20T00:31:06.900Z,12.03
2018-11-20T00:34:06.155Z,11.33
2018-11-20T00:36:54.192Z,11.67
2018-11-20T00:39:49.970Z,11.53
2018-11-20T00:42:45.266Z,12.00
2018-11-20T00:45:33.964Z,12.37
2018-11-20T00:48:18.018Z,11.77
2018-11-20T00:51:08.451Z,12.20
2018-11-20T00:53:56.526Z,11.53
2018-11-20T00:56:56.628Z,11.00
2018-11-20T00:59:47.754Z,12.17
2018-11-20T01:02:36.247Z,12.57
2018-11-20T01:05:32.828Z,12.27
2018-11-20T01:08:13.925Z,12.10
2018-11-20T01:11:06.252Z,12.50
2018-11-20T01:13:54.825Z,12.53
2018-11-20T01:16:44.471Z,12.63
2018-11-20T01:19:40.342Z,12.47
2018-11-20T01:22:29.828Z,12.07
2018-11-20T01:25:10.068Z,13.37
2018-11-20T01:28:05.571Z,12.17
2018-11-20T01:31:03.882Z,12.70
2018-11-20T01:33:47.077Z,12.23
2018-11-20T01:36:35.203Z,12.33
2018-11-20T01:39:29.193Z,12.83
2018-11-20T01:42:07.778Z,12.80
2018-11-20T01:45:15.550Z,12.70
2018-11-20T01:48:11.084Z,13.20
2018-11-20T01:50:54.420Z,13.47
2018-11-20T01:53:50.258Z,12.43
2018-11-20T01:56:45.947Z,12.73
2018-11-20T01:59:29.517Z,13.60
2018-11-20T02:02:17.911Z,12.80
2018-11-20T02:05:13.748Z,12.90
2018-11-20T02:08:06.182Z,12.60
2018-11-20T02:11:07.496Z,12.67
2018-11-20T02:14:15.603Z,12.17
2018-11-20T02:17:24.070Z,13.07
2018-11-20T02:20:17.147Z,12.07
2018-11-20T02:23:06.794Z,12.50
2018-11-20T02:25:51.079Z,12.93
2018-11-20T02:28:43.376Z,12.83
2018-11-20T02:31:32.117Z,13.50
2018-11-20T02:34:28.889Z,12.63
2018-11-20T02:37:07.950Z,12.93
2018-11-20T02:39:58.563Z,13.60
2018-11-20T02:42:41.501Z,13.63
2018-11-20T02:45:39.500Z,14.03
2018-11-20T02:48:28.413Z,12.90
2018-11-20T02:51:18.154Z,14.27
2018-11-20T02:54:13.830Z,14.03
2018-11-20T02:57:09.361Z,12.60
2018-11-20T03:00:14.015Z,12.83
2018-11-20T03:03:19.607Z,12.90
2018-11-20T03:06:12.170Z,13.37
2018-11-20T03:08:55.554Z,13.33
2018-11-20T03:11:45.122Z,12.87
2018-11-20T03:14:37.474Z,12.43
2018-11-20T03:17:25.514Z,13.33
2018-11-20T03:20:09.448Z,13.23
2018-11-20T03:23:08.324Z,12.47
2018-11-20T03:26:04.720Z,12.30
2018-11-20T03:29:08.226Z,12.17
2018-11-20T03:31:56.699Z,12.10
2018-11-20T03:34:49.045Z,12.03
2018-11-20T03:37:28.313Z,11.77
2018-11-20T03:40:16.650Z,12.23
2018-11-20T03:42:52.920Z,11.23
2018-11-20T03:45:32.749Z,11.63
2018-11-20T03:48:40.646Z,11.57
2018-11-20T03:51:31.037Z,11.43
2018-11-20T03:54:35.803Z,11.33
2018-11-20T03:57:22.976Z,11.90
2018-11-20T04:00:01.018Z,11.23
2018-11-20T04:02:50.574Z,10.57
2018-11-20T04:05:49.460Z,11.67
2018-11-20T04:08:41.922Z,10.70
2018-11-20T04:11:24.746Z,11.37
2018-11-20T04:14:12.825Z,11.23
2018-11-20T04:16:57.177Z,11.10
2018-11-20T04:19:50.082Z,10.80
2018-11-20T04:22:39.654Z,11.67
2018-11-20T04:25:28.222Z,10.33
2018-11-20T04:28:16.285Z,11.47
2018-11-20T04:31:47.887Z,11.17
2018-11-20T04:34:49.660Z,10.80
2018-11-20T04:37:38.408Z,10.43
2018-11-20T04:40:40.687Z,11.33
2018-11-20T04:43:23.862Z,10.43
2018-11-20T04:46:11.861Z,9.57
2018-11-20T04:49:04.109Z,10.37
2018-11-20T04:51:46.511Z,10.60
2018-11-20T04:54:30.105Z,9.83
2018-11-20T04:57:18.597Z,9.40
2018-11-20T05:00:14.029Z,9.20
2018-11-20T05:03:12.324Z,9.07
2018-11-20T05:06:00.578Z,10.03
2018-11-20T05:08:55.528Z,9.77
2018-11-20T05:11:36.690Z,10.40
2018-11-20T05:14:35.609Z,9.07
2018-11-20T05:17:40.751Z,9.47
2018-11-20T05:20:33.116Z,9.10
2018-11-20T05:23:21.264Z,9.63
2018-11-20T05:25:58.176Z,9.00
2018-11-20T05:28:44.769Z,9.13
2018-11-20T05:31:30.804Z,8.47
2018-11-20T05:34:10.006Z,9.07
2018-11-20T05:36:59.550Z,9.17
2018-11-20T05:39:57.957Z,8.13
2018-11-20T05:42:46.495Z,8.63
2018-11-20T05:45:41.833Z,8.53
2018-11-20T05:48:37.624Z,8.63
2018-11-20T05:51:17.693Z,8.90
2018-11-20T05:54:03.816Z,9.20
2018-11-20T05:56:52.146Z,8.30
2018-11-20T05:59:56.831Z,8.00
2018-11-20T06:02:45.098Z,8.70
2018-11-20T06:05:31.217Z,8.53
2018-11-20T06:08:14.690Z,8.23
2018-11-20T06:10:52.558Z,8.60
2018-11-20T06:13:40.784Z,8.20
2018-11-20T06:16:33.417Z,8.20
2018-11-20T06:19:31.609Z,8.47
2018-11-20T06:22:20.114Z,8.07
2018-11-20T06:25:08.444Z,8.03
2018-11-20T06:28:03.757Z,7.80
2018-11-20T06:30:42.468Z,7.63
2018-11-20T06:33:32.105Z,8.10
2018-11-20T06:36:23.420Z,7.60
2018-11-20T06:39:09.766Z,7.27
2018-11-20T06:42:08.491Z,7.07
2018-11-20T06:45:01.678Z,7.30
2018-11-20T06:47:49.845Z,7.63
2018-11-20T06:50:27.988Z,7.47
2018-11-20T06:53:16.985Z,7.47
2018-11-20T06:56:18.396Z,7.30
2018-11-20T06:59:17.263Z,7.40
2018-11-20T07:01:54.712Z,6.83
2018-11-20T07:05:02.710Z,7.03
2018-11-20T07:07:47.734Z,6.23
2018-11-20T07:10:55.510Z,5.83
2018-11-20T07:13:49.749Z,6.23
2018-11-20T07:16:45.415Z,6.43
2018-11-20T07:19:53.962Z,6.73
2018-11-20T07:22:52.382Z,7.23
2018-11-20T07:25:45.146Z,7.77
2018-11-20T07:28:33.213Z,8.03
2018-11-20T07:31:38.246Z,6.90
2018-11-20T07:34:27.812Z,7.90
2018-11-20T07:37:16.127Z,7.83
2018-11-20T07:39:57.853Z,8.57
2018-11-20T07:42:42.789Z,8.70
2018-11-20T07:45:31.318Z,8.23
2018-11-20T07:48:35.931Z,8.33
2018-11-20T07:51:39.143Z,8.47
2018-11-20T07:54:28.675Z,8.53
2018-11-20T07:57:08.022Z,8.83
2018-11-20T07:59:53.378Z,7.80
2018-11-20T08:02:43.022Z,7.83
2018-11-20T08:05:26.622Z,8.07
2018-11-20T08:08:15.100Z,8.00
2018-11-20T08:11:01.006Z,8.10
2018-11-20T08:13:53.712Z,8.10
2018-11-20T08:16:36.310Z,7.63
2018-11-20T08:19:38.170Z,7.23
2018-11-20T08:22:18.598Z,7.73
2018-11-20T08:25:10.785Z,7.20
2018-11-20T08:27:59.264Z,8.23
2018-11-20T08:31:07.447Z,7.50
2018-11-20T08:33:55.734Z,7.37
2018-11-20T08:36:35.764Z,8.30
2018-11-20T08:39:26.192Z,8.00
2018-11-20T08:42:10.811Z,8.20
2018-11-20T08:45:03.468Z,8.20
2018-11-20T08:48:12.221Z,8.37
2018-11-20T08:51:01.698Z,8.50
2018-11-20T08:53:54.637Z,9.07
2018-11-20T08:56:36.891Z,8.50
2018-11-20T08:59:44.897Z,9.20
2018-11-20T09:02:35.555Z,9.10
2018-11-20T09:05:23.991Z,8.87
2018-11-20T09:08:12.289Z,8.57
2018-11-20T09:11:00.540Z,9.53
2018-11-20T09:13:48.771Z,9.60
2018-11-20T09:16:44.497Z,8.60
2018-11-20T09:19:40.106Z,8.77
2018-11-20T09:22:28.900Z,8.90
2018-11-20T09:25:21.193Z,8.87
2018-11-20T09:28:29.219Z,8.83
2018-11-20T09:31:24.620Z,8.87
2018-11-20T09:34:13.384Z,8.93
2018-11-20T09:37:06.560Z,8.40
2018-11-20T09:40:11.590Z,9.20
2018-11-20T09:43:04.776Z,8.97
2018-11-20T09:46:13.153Z,8.67
2018-11-20T09:49:01.009Z,8.33
2018-11-20T09:51:49.485Z,8.10
2018-11-20T09:54:48.028Z,8.00
2018-11-20T09:57:36.503Z,8.10
2018-11-20T10:00:36.015Z,7.80
2018-11-20T10:03:14.183Z,7.17
2018-11-20T10:06:02.300Z,7.47
2018-11-20T10:09:07.227Z,7.13
2018-11-20T10:11:52.398Z,6.87
2018-11-20T10:14:34.253Z,6.70
2018-11-20T10:17:22.395Z,6.73
2018-11-20T10:20:17.561Z,7.10
2018-11-20T10:23:04.039Z,6.50
2018-11-20T10:25:52.620Z,7.20
2018-11-20T10:28:45.027Z,6.43
2018-11-20T10:31:37.078Z,7.07
2018-11-20T10:34:32.837Z,6.77
2018-11-20T10:37:09.879Z,6.60
2018-11-20T10:40:05.281Z,6.23
2018-11-20T10:43:13.339Z,6.30
2018-11-20T10:46:02.951Z,6.27
2018-11-20T10:48:58.535Z,5.90
2018-11-20T10:51:50.728Z,6.60
2018-11-20T10:54:58.516Z,6.93
2018-11-20T10:57:53.987Z,6.40
2018-11-20T11:00:42.187Z,6.90
2018-11-20T11:03:19.748Z,6.80
2018-11-20T11:06:07.969Z,7.00
2018-11-20T11:08:56.389Z,7.00
2018-11-20T11:11:45.046Z,7.53
2018-11-20T11:14:33.807Z,6.30
2018-11-20T11:17:21.753Z,7.67
2018-11-20T11:20:10.283Z,7.00
2018-11-20T11:23:15.159Z,6.97
2018-11-20T11:26:03.482Z,7.27
2018-11-20T11:28:41.488Z,6.77
2018-11-20T11:31:25.732Z,7.57
2018-11-20T11:34:16.750Z,7.20
2018-11-20T11:37:05.304Z,7.40
2018-11-20T11:39:53.746Z,7.20
2018-11-20T11:42:45.398Z,7.77
2018-11-20T11:45:41.147Z,6.80
2018-11-20T11:48:39.503Z,6.77
2018-11-20T11:51:31.776Z,7.13
2018-11-20T11:54:20.307Z,6.73
2018-11-20T11:57:10.209Z,6.67
2018-11-20T11:59:58.378Z,7.50
2018-11-20T12:05:38.825Z,6.60
2018-11-20T12:08:27.012Z,7.07
2018-11-20T12:11:15.081Z,6.70
2018-11-20T12:14:05.016Z,6.53
2018-11-20T12:17:06.887Z,5.77
2018-11-20T12:19:55.466Z,6.23
2018-11-20T12:22:44.359Z,6.40
2018-11-20T12:25:37.807Z,6.40
2018-11-20T12:28:26.090Z,5.90
2018-11-20T12:31:12.909Z,6.13
2018-11-20T12:33:54.283Z,5.83
2018-11-20T12:36:42.619Z,6.63
2018-11-20T12:39:26.486Z,5.80
2018-11-20T12:42:14.834Z,5.70
2018-11-20T12:45:15.600Z,6.13
2018-11-20T12:48:12.180Z,5.40
2018-11-20T12:51:11.095Z,5.73
2018-11-20T12:54:00.618Z,6.10
2018-11-20T12:56:48.668Z,5.60
2018-11-20T12:59:41.211Z,5.87
2018-11-20T13:02:30.844Z,5.47
2018-11-20T13:05:13.373Z,5.30
2018-11-20T13:08:06.217Z,5.60
2018-11-20T13:10:55.988Z,5.37
2018-11-20T13:13:45.524Z,5.37
2018-11-20T13:16:24.957Z,5.63
2018-11-20T13:19:20.519Z,5.93
2018-11-20T13:22:10.289Z,5.37
2018-11-20T13:25:18.053Z,5.30
2018-11-20T13:28:22.857Z,5.37
2018-11-20T13:31:09.695Z,5.40
2018-11-20T13:34:02.369Z,5.30
2018-11-20T13:36:54.805Z,5.30
2018-11-20T13:39:34.402Z,5.07
2018-11-20T13:42:32.002Z,5.00
2018-11-20T13:45:18.585Z,4.90
2018-11-20T13:48:14.172Z,5.07
2018-11-20T13:51:05.417Z,4.80
2018-11-20T13:53:53.540Z,4.90
2018-11-20T13:56:41.843Z,4.40
2018-11-20T13:59:30.068Z,4.67
2018-11-20T14:02:25.221Z,4.87
2018-11-20T14:05:19.472Z,5.10
2018-11-20T14:08:20.645Z,4.60
2018-11-20T14:11:22.440Z,5.00
2018-11-20T14:14:05.030Z,4.77
2018-11-20T14:17:00.467Z,4.27
2018-11-20T14:19:55.850Z,4.50
2018-11-20T14:22:40.466Z,4.83
2018-11-20T14:25:51.765Z,4.73
2018-11-20T14:28:39.777Z,5.03
2018-11-20T14:31:21.796Z,4.67
2018-11-20T14:34:09.160Z,4.53
2018-11-20T14:36:57.455Z,5.20
2018-11-20T14:39:56.285Z,4.50
2018-11-20T14:42:44.474Z,5.17
2018-11-20T14:45:45.148Z,4.57
2018-11-20T14:48:27.443Z,4.67
2018-11-20T14:51:16.222Z,4.70
2018-11-20T14:54:08.508Z,4.70
2018-11-20T14:57:16.452Z,4.97
2018-11-20T15:00:14.560Z,4.33
2018-11-20T15:03:13.600Z,5.00
2018-11-20T15:05:58.377Z,4.90
2018-11-20T15:08:40.164Z,4.67
2018-11-20T15:11:28.302Z,4.87
2018-11-20T15:14:18.528Z,4.73
2018-11-20T15:17:13.431Z,4.77
2018-11-20T15:20:12.061Z,4.70
2018-11-20T15:23:14.256Z,5.00
2018-11-20T15:25:54.947Z,4.67
2018-11-20T15:28:47.518Z,4.60
2018-11-20T15:31:55.413Z,4.50
2018-11-20T15:34:43.594Z,4.57
2018-11-20T15:37:32.513Z,4.83
2018-11-20T15:40:27.661Z,5.03
2018-11-20T15:43:15.972Z,5.10
2018-11-20T15:46:04.195Z,5.10
2018-11-20T15:48:52.839Z,5.10
2018-11-20T15:51:32.720Z,4.93
2018-11-20T15:54:31.899Z,5.10
2018-11-20T15:57:21.143Z,4.90
2018-11-20T16:00:28.936Z,4.77
2018-11-20T16:03:22.946Z,5.03
2018-11-20T16:06:04.926Z,4.97
2018-11-20T16:08:57.263Z,5.27
2018-11-20T16:12:02.174Z,5.07
2018-11-20T16:14:57.702Z,5.57
2018-11-20T16:17:50.017Z,5.23
2018-11-20T16:20:29.568Z,5.33
2018-11-20T16:23:25.021Z,6.00
2018-11-20T16:26:14.567Z,4.87
2018-11-20T16:29:16.710Z,4.97
2018-11-20T16:32:06.688Z,6.03
2018-11-20T16:34:54.789Z,5.70
2018-11-20T16:37:56.156Z,5.10
2018-11-20T16:40:54.496Z,5.03
2018-11-20T16:43:44.286Z,5.73
2018-11-20T16:46:48.724Z,6.20
2018-11-20T16:49:36.649Z,5.47
2018-11-20T16:52:29.027Z,5.90
2018-11-20T16:55:19.022Z,5.53
2018-11-20T16:58:16.815Z,5.23
2018-11-20T17:01:06.594Z,6.13
2018-11-20T17:03:54.655Z,6.30
2018-11-20T17:06:35.195Z,6.03
2018-11-20T17:09:41.707Z,6.30
2018-11-20T17:12:20.094Z,5.67
2018-11-20T17:15:02.134Z,5.93
2018-11-20T17:17:45.046Z,6.40
2018-11-20T17:20:31.314Z,5.27
2018-11-20T17:23:20.858Z,6.80
2018-11-20T17:26:08.787Z,6.20
2018-11-20T17:28:58.644Z,6.70
2018-11-20T17:31:46.807Z,6.40
2018-11-20T17:34:36.042Z,6.47
2018-11-20T17:37:27.156Z,7.07
2018-11-20T17:40:15.195Z,6.90
2018-11-20T17:43:14.172Z,7.30
2018-11-20T17:46:03.903Z,7.40
2018-11-20T17:48:59.123Z,7.03
2018-11-20T17:52:07.008Z,7.23
2018-11-20T17:55:02.307Z,8.27
2018-11-20T17:57:57.238Z,7.80
2018-11-20T18:00:44.054Z,8.77
2018-11-20T18:03:33.749Z,8.43
2018-11-20T18:06:32.168Z,8.30
2018-11-20T18:09:20.170Z,9.73
2018-11-20T18:12:09.040Z,10.60
2018-11-20T18:14:57.423Z,9.20
2018-11-20T18:17:53.697Z,9.97
2018-11-20T18:20:41.615Z,9.80
2018-11-20T18:23:46.223Z,10.67
2018-11-20T18:26:48.771Z,11.10
2018-11-20T18:29:50.302Z,11.37
2018-11-20T18:32:38.833Z,12.30
2018-11-20T18:35:28.697Z,13.17
2018-11-20T18:38:36.812Z,12.53
2018-11-20T18:41:23.101Z,12.20
2018-11-20T18:44:15.330Z,11.90
2018-11-20T18:47:23.220Z,12.40
2018-11-20T18:50:28.080Z,12.43
2018-11-20T18:53:16.362Z,13.17
2018-11-20T18:56:03.825Z,12.17
2018-11-20T18:58:51.629Z,12.97
2018-11-20T19:01:39.935Z,13.07
2018-11-20T19:04:35.821Z,12.30
2018-11-20T19:07:32.612Z,13.13
2018-11-20T19:10:28.262Z,12.77
2018-11-20T19:13:20.856Z,12.83
2018-11-20T19:16:09.288Z,13.80
2018-11-20T19:19:02.994Z,12.77
2018-11-20T19:21:58.586Z,13.93
2018-11-20T19:24:53.661Z,13.63
2018-11-20T19:27:46.178Z,14.00
2018-11-20T19:30:50.822Z,13.73
2018-11-20T19:33:46.397Z,12.87
2018-11-20T19:36:28.358Z,12.73
2018-11-20T19:39:15.916Z,13.07
2018-11-20T19:42:08.748Z,13.17
2018-11-20T19:44:49.712Z,12.90
2018-11-20T19:47:45.182Z,13.37
2018-11-20T19:50:35.080Z,13.73
2018-11-20T19:53:23.820Z,13.83
2018-11-20T19:56:22.392Z,13.27
2018-11-20T19:59:20.653Z,12.93
2018-11-20T20:02:22.349Z,13.53
2018-11-20T20:05:21.214Z,13.90
2018-11-20T20:08:26.037Z,13.60
2018-11-20T20:11:06.108Z,14.13
2018-11-20T20:13:54.372Z,13.87
2018-11-20T20:16:48.216Z,13.27
2018-11-20T20:19:36.682Z,13.33
2018-11-20T20:22:24.963Z,14.13
2018-11-20T20:25:14.606Z,12.30
2018-11-20T20:28:07.435Z,14.10
2018-11-20T20:30:55.450Z,13.90
2018-11-20T20:33:43.762Z,13.10
2018-11-20T20:36:32.221Z,14.23
2018-11-20T20:39:21.178Z,13.60
2018-11-20T20:42:09.376Z,13.30
2018-11-20T20:44:57.511Z,12.73
2018-11-20T20:47:49.850Z,13.67
2018-11-20T20:50:57.746Z,13.97
2018-11-20T20:53:43.843Z,13.87
2018-11-20T20:56:27.391Z,14.70
2018-11-20T20:59:19.126Z,13.83
2018-11-20T21:02:14.650Z,14.63
2018-11-20T21:05:07.782Z,14.27
2018-11-20T21:07:55.912Z,14.53
2018-11-20T21:10:44.239Z,14.30
2018-11-20T21:13:42.595Z,15.20
2018-11-20T21:16:32.243Z,15.80
2018-11-20T21:19:21.767Z,14.77
2018-11-20T21:22:17.519Z,15.57
2018-11-20T21:25:07.152Z,16.17
2018-11-20T21:27:48.042Z,15.60
2018-11-20T21:30:43.750Z,15.77
2018-11-20T21:33:26.877Z,16.10
2018-11-20T21:36:25.220Z,15.40
2018-11-20T21:39:13.681Z,15.23
2018-11-20T21:41:57.133Z,15.63
2018-11-20T21:44:49.528Z,16.50
2018-11-20T21:47:38.450Z,15.73
2018-11-20T21:50:36.132Z,16.60
2018-11-20T21:53:26.042Z,15.00
2018-11-20T21:56:21.634Z,16.67
2018-11-20T21:59:19.680Z,15.17
2018-11-20T22:02:10.479Z,15.73
2018-11-20T22:05:03.121Z,15.50
2018-11-20T22:07:42.677Z,15.93
2018-11-20T22:10:33.500Z,15.47
2018-11-20T22:13:35.395Z,14.73
2018-11-20T22:16:23.283Z,14.80
2018-11-20T22:19:19.103Z,14.00
2018-11-20T22:22:54.081Z,15.00
2018-11-20T22:25:51.555Z,14.40
2018-11-20T22:28:49.668Z,14.30
2018-11-20T22:31:32.007Z,14.63
2018-11-20T22:34:23.307Z,15.00
2018-11-20T22:37:10.236Z,15.13
2018-11-20T22:39:57.415Z,15.40
2018-11-20T22:42:52.210Z,14.20
2018-11-20T22:45:55.647Z,14.80
2018-11-20T22:48:43.045Z,14.80
2018-11-20T22:51:37.297Z,14.10
2018-11-20T22:54:24.612Z,13.80
2018-11-20T22:57:05.286Z,14.00
2018-11-20T22:59:53.198Z,14.13
2018-11-20T23:02:50.311Z,13.83
2018-11-20T23:05:46.133Z,13.70
2018-11-20T23:08:15.568Z,13.00
2018-11-20T23:10:44.950Z,14.13
2018-11-20T23:13:14.504Z,13.97
2018-11-20T23:15:43.945Z,13.13
2018-11-20T23:18:13.365Z,13.37
2018-11-20T23:20:43.582Z,13.40
2018-11-20T23:23:12.999Z,11.97
2018-11-20T23:25:42.351Z,13.93
2018-11-20T23:28:11.780Z,13.63
2018-11-20T23:30:41.434Z,13.77
2018-11-20T23:33:10.772Z,13.67
2018-11-20T23:35:40.212Z,13.87
2018-11-20T23:38:09.973Z,13.10
2018-11-20T23:40:39.350Z,13.57
2018-11-20T23:43:09.038Z,13.50
2018-11-20T23:45:39.046Z,14.17
2018-11-20T23:48:08.781Z,14.13
2018-11-20T23:50:38.483Z,13.77
2018-11-20T23:53:08.611Z,14.27
2018-11-20T23:55:37.988Z,14.40
2018-11-20T23:58:07.471Z,15.07
